Easton, New Hampshire
Current Conditions -  °F | °C
As of 8:35 AM on Friday 28 Nov 2014 (Local Time) from K1P1 Reporting Station
Overcast Overcast  
Wind Chill: -8°   Ceiling: 11000
Heat Index: -3°   Visibility: 10mi
Dew Point: -4°   Wind: 7mph
Humidity: 94%   Direction: 280°W
Pressure: 30.04"   Gusts: NA
Location:  44.1173°N, 71.8999°W
Report Text: K1P1 281335Z AUTO 28006KT 10SM OVC110 M03/M04 A3004 RMK AO2 T10351043
Loading
Personal Weather Stations






























Interactive Weather Map New forecast layout! Learn more

10-Day Weather Forecast

Advertisements
Track Severe Weather on mobile